createdAt,value
2023-04-21T00:01:41.800Z,2.28
2023-04-21T00:04:09.920Z,1.85
2023-04-21T00:06:43.834Z,2.55
2023-04-21T00:09:11.528Z,2.30
2023-04-21T00:14:12.762Z,2.00
2023-04-21T00:16:39.947Z,2.08
2023-04-21T00:19:13.764Z,2.30
2023-04-21T00:21:41.087Z,2.20
2023-04-21T00:24:08.587Z,2.35
2023-04-21T00:29:09.865Z,2.65
2023-04-21T00:31:43.843Z,1.85
2023-04-21T00:34:11.108Z,2.85
2023-04-21T00:36:38.223Z,2.13
2023-04-21T00:39:12.098Z,2.30
2023-04-21T00:41:40.144Z,2.03
2023-04-21T00:44:19.686Z,2.25
2023-04-21T00:46:47.164Z,2.50
2023-04-21T00:49:14.364Z,2.42
2023-04-21T00:51:47.735Z,2.63
2023-04-21T00:54:15.104Z,2.95
2023-04-21T00:56:42.300Z,2.58
2023-04-21T00:59:15.750Z,2.55
2023-04-21T01:01:43.002Z,2.95
2023-04-21T01:04:10.582Z,2.72
2023-04-21T01:06:44.768Z,2.63
2023-04-21T01:09:15.163Z,2.58
2023-04-21T01:11:48.847Z,3.13
2023-04-21T01:14:15.995Z,2.83
2023-04-21T01:16:44.843Z,2.47
2023-04-21T01:19:19.913Z,2.38
2023-04-21T01:21:47.256Z,2.53
2023-04-21T01:24:20.822Z,2.47
2023-04-21T01:26:49.473Z,2.50
2023-04-21T01:29:17.885Z,2.30
2023-04-21T01:31:53.775Z,2.67
2023-04-21T01:34:21.032Z,2.47
2023-04-21T01:36:54.738Z,2.50
2023-04-21T01:39:21.833Z,2.50
2023-04-21T01:41:49.134Z,2.50
2023-04-21T01:44:22.763Z,2.70
2023-04-21T01:46:49.897Z,2.88
2023-04-21T01:49:17.203Z,3.00
2023-04-21T01:54:17.814Z,3.00
2023-04-21T01:56:51.792Z,3.08
2023-04-21T01:59:19.251Z,2.58
2023-04-21T02:01:46.903Z,3.10
2023-04-21T02:04:20.819Z,3.08
2023-04-21T02:06:48.001Z,3.10
2023-04-21T02:09:22.741Z,3.17
2023-04-21T02:11:49.916Z,3.00
2023-04-21T02:14:17.020Z,2.60
2023-04-21T02:16:50.842Z,2.85
2023-04-21T02:19:18.195Z,2.70
2023-04-21T02:21:51.680Z,2.78
2023-04-21T02:24:19.026Z,3.25
2023-04-21T02:26:46.202Z,2.67
2023-04-21T02:29:19.899Z,2.88
2023-04-21T02:31:58.813Z,2.75
2023-04-21T02:34:36.684Z,2.80
2023-04-21T02:37:04.847Z,3.00
2023-04-21T02:39:38.846Z,3.28
2023-04-21T02:42:06.328Z,2.92
2023-04-21T02:47:15.918Z,2.67
2023-04-21T02:49:43.360Z,2.90
2023-04-21T02:52:16.743Z,2.92
2023-04-21T02:54:43.936Z,2.63
2023-04-21T02:57:11.048Z,2.88
2023-04-21T02:59:44.725Z,3.08
2023-04-21T03:02:11.956Z,2.55
2023-04-21T03:04:45.729Z,3.28
2023-04-21T03:07:13.732Z,2.95
2023-04-21T03:09:41.300Z,3.40
2023-04-21T03:14:42.233Z,2.88
2023-04-21T03:19:43.007Z,2.95
2023-04-21T03:22:10.088Z,2.58
2023-04-21T03:24:43.785Z,3.03
2023-04-21T03:27:11.293Z,4.10
2023-04-21T03:32:11.966Z,3.25
2023-04-21T03:34:45.824Z,2.95
2023-04-21T03:37:12.992Z,3.50
2023-04-21T03:39:40.315Z,3.22
2023-04-21T03:42:13.958Z,3.40
2023-04-21T03:44:47.636Z,3.78
2023-04-21T03:47:21.773Z,3.53
2023-04-21T03:49:55.648Z,3.30
2023-04-21T03:52:29.840Z,2.95
2023-04-21T03:54:57.073Z,3.10
2023-04-21T03:57:24.160Z,3.08
2023-04-21T03:59:57.816Z,3.00
2023-04-21T04:02:25.182Z,3.13
2023-04-21T04:07:26.206Z,3.90
2023-04-21T04:09:53.396Z,3.47
2023-04-21T04:12:26.718Z,3.22
2023-04-21T04:14:53.815Z,3.20
2023-04-21T04:17:27.772Z,3.30
2023-04-21T04:19:54.893Z,3.63
2023-04-21T04:22:22.020Z,3.35
2023-04-21T04:24:55.804Z,3.30
2023-04-21T04:27:23.079Z,3.05
2023-04-21T04:29:50.337Z,2.70
2023-04-21T04:32:23.722Z,2.95
2023-04-21T04:34:52.288Z,3.00
2023-04-21T04:37:28.897Z,2.40
2023-04-21T04:39:56.602Z,2.83
2023-04-21T04:45:03.823Z,2.80
2023-04-21T04:47:30.959Z,3.15
2023-04-21T04:50:05.010Z,2.75
2023-04-21T04:52:32.121Z,2.53
2023-04-21T04:54:59.289Z,2.95
2023-04-21T04:57:32.948Z,2.67
2023-04-21T05:00:00.220Z,2.75
2023-04-21T05:02:27.415Z,2.63
2023-04-21T05:05:01.857Z,3.15
2023-04-21T05:07:29.088Z,3.15
2023-04-21T05:10:02.757Z,2.90
2023-04-21T05:12:29.850Z,2.90
2023-04-21T05:14:57.092Z,2.90
2023-04-21T05:17:30.772Z,2.60
2023-04-21T05:19:58.036Z,2.80
2023-04-21T05:22:31.870Z,2.80
2023-04-21T05:24:59.919Z,2.92
2023-04-21T05:27:27.165Z,2.88
2023-04-21T05:30:01.801Z,2.83
2023-04-21T05:32:29.363Z,3.28
2023-04-21T05:35:03.747Z,2.80
2023-04-21T05:37:30.927Z,2.85
2023-04-21T05:39:58.036Z,2.78
2023-04-21T05:42:31.758Z,2.95
2023-04-21T05:45:05.898Z,2.75
2023-04-21T05:47:39.773Z,2.53
2023-04-21T05:50:07.530Z,2.67
2023-04-21T05:55:08.998Z,2.53
2023-04-21T05:57:36.227Z,3.25
2023-04-21T06:00:03.380Z,3.13
2023-04-21T06:02:37.951Z,2.90
2023-04-21T06:05:05.669Z,2.58
2023-04-21T06:07:39.736Z,3.00
2023-04-21T06:10:07.166Z,3.15
2023-04-21T06:12:40.829Z,2.70
2023-04-21T06:15:14.818Z,2.78
2023-04-21T06:17:48.804Z,2.80
2023-04-21T06:20:22.774Z,2.60
2023-04-21T06:22:56.798Z,2.88
2023-04-21T06:25:24.016Z,2.83
2023-04-21T06:27:51.101Z,2.42
2023-04-21T06:30:24.801Z,2.42
2023-04-21T06:32:52.011Z,2.80
2023-04-21T06:35:26.820Z,2.72
2023-04-21T06:37:53.968Z,2.70
2023-04-21T06:40:21.080Z,2.63
2023-04-21T06:42:54.907Z,2.63
2023-04-21T06:45:28.754Z,2.78
2023-04-21T06:48:03.319Z,2.42
2023-04-21T06:50:30.783Z,2.33
2023-04-21T06:52:58.059Z,2.63
2023-04-21T06:55:31.762Z,2.60
2023-04-21T06:57:59.002Z,2.72
2023-04-21T07:00:32.991Z,2.53
2023-04-21T07:03:00.361Z,2.40
2023-04-21T07:05:27.576Z,2.33
2023-04-21T07:08:05.753Z,2.28
2023-04-21T07:10:32.942Z,2.65
2023-04-21T07:13:08.211Z,2.88
2023-04-21T07:15:37.276Z,3.00
2023-04-21T07:18:04.471Z,2.95
2023-04-21T07:20:37.750Z,2.50
2023-04-21T07:23:05.055Z,2.88
2023-04-21T07:25:38.798Z,2.88
2023-04-21T07:28:06.541Z,2.80
2023-04-21T07:30:33.643Z,2.95
2023-04-21T07:33:08.429Z,3.08
2023-04-21T07:35:35.778Z,3.10
2023-04-21T07:38:09.921Z,3.25
2023-04-21T07:40:37.272Z,3.38
2023-04-21T07:43:17.920Z,3.03
2023-04-21T07:45:52.658Z,3.47
2023-04-21T07:48:26.961Z,2.97
2023-04-21T07:50:54.186Z,3.30
2023-04-21T07:53:21.364Z,3.15
2023-04-21T07:55:54.808Z,3.47
2023-04-21T07:58:22.453Z,3.60
2023-04-21T08:00:56.978Z,3.40
2023-04-21T08:03:24.725Z,3.05
2023-04-21T08:05:52.243Z,3.30
2023-04-21T08:08:28.788Z,3.53
2023-04-21T08:10:57.871Z,3.08
2023-04-21T08:13:31.792Z,3.45
2023-04-21T08:15:59.153Z,3.40
2023-04-21T08:18:26.461Z,3.25
2023-04-21T08:20:59.916Z,2.90
2023-04-21T08:23:27.274Z,2.72
2023-04-21T08:26:00.957Z,2.63
2023-04-21T08:28:28.226Z,3.10
2023-04-21T08:30:55.332Z,2.88
2023-04-21T08:33:28.871Z,3.05
2023-04-21T08:36:05.613Z,2.75
2023-04-21T08:38:43.862Z,2.35
2023-04-21T08:41:11.505Z,2.80
2023-04-21T08:46:26.046Z,2.20
2023-04-21T08:48:59.812Z,2.70
2023-04-21T08:51:34.728Z,2.40
2023-04-21T08:54:01.990Z,2.40
2023-04-21T08:56:35.884Z,2.25
2023-04-21T08:59:03.178Z,2.53
2023-04-21T09:01:31.085Z,2.17
2023-04-21T09:04:23.933Z,1.92
2023-04-21T09:06:51.494Z,2.30
2023-04-21T09:11:57.124Z,1.88
2023-04-21T09:14:35.854Z,1.80
2023-04-21T09:17:04.233Z,1.63
2023-04-21T09:19:40.855Z,1.95
2023-04-21T09:22:08.310Z,1.95
2023-04-21T09:24:41.852Z,1.73
2023-04-21T09:27:10.896Z,1.90
2023-04-21T09:29:38.393Z,2.10
2023-04-21T09:34:42.380Z,2.20
2023-04-21T09:37:19.042Z,1.75
2023-04-21T09:40:03.351Z,2.00
2023-04-21T09:42:41.942Z,2.17
2023-04-21T09:45:39.070Z,2.05
2023-04-21T09:48:15.847Z,2.17
2023-04-21T09:53:22.888Z,1.83
2023-04-21T09:55:57.829Z,2.72
2023-04-21T09:58:28.305Z,1.90
2023-04-21T10:00:57.438Z,1.77
2023-04-21T10:03:35.108Z,1.70
2023-04-21T10:06:02.457Z,1.90
2023-04-21T10:08:35.902Z,1.98
2023-04-21T10:11:03.232Z,1.75
2023-04-21T10:13:31.025Z,2.00
2023-04-21T10:16:16.048Z,1.90
2023-04-21T10:18:44.359Z,1.80
2023-04-21T10:21:12.350Z,1.92
2023-04-21T10:23:46.918Z,1.92
2023-04-21T10:26:21.771Z,1.52
2023-04-21T10:28:48.937Z,1.60
2023-04-21T10:31:29.870Z,1.63
2023-04-21T10:34:09.430Z,1.50
2023-04-21T10:36:49.780Z,1.90
2023-04-21T10:39:26.498Z,1.67
2023-04-21T10:42:04.769Z,1.33
2023-04-21T10:44:42.381Z,1.85
2023-04-21T10:47:15.896Z,1.73
2023-04-21T10:49:43.232Z,1.40
2023-04-21T10:52:18.765Z,1.77
2023-04-21T10:54:50.293Z,2.10
2023-04-21T10:57:24.781Z,1.48
2023-04-21T10:59:51.989Z,1.73
2023-04-21T11:02:25.909Z,1.60
2023-04-21T11:04:54.499Z,1.80
2023-04-21T11:07:23.471Z,1.75
2023-04-21T11:10:10.950Z,1.60
2023-04-21T11:12:39.235Z,1.70
2023-04-21T11:15:17.229Z,1.45
2023-04-21T11:20:11.603Z,1.40
2023-04-21T11:22:45.939Z,1.33
2023-04-21T11:25:19.517Z,1.33
2023-04-21T11:28:03.132Z,1.70
2023-04-21T11:30:36.534Z,1.17
2023-04-21T11:33:10.088Z,1.50
2023-04-21T11:35:41.101Z,1.30
2023-04-21T11:38:08.208Z,1.70
2023-04-21T11:40:57.886Z,1.52
2023-04-21T11:43:25.083Z,1.50
2023-04-21T11:46:05.986Z,1.80
2023-04-21T11:48:35.009Z,1.45
2023-04-21T11:51:09.002Z,1.35
2023-04-21T11:53:36.128Z,1.60
2023-04-21T11:56:10.000Z,1.70
2023-04-21T11:58:37.110Z,1.70
2023-04-21T12:01:17.145Z,1.42
2023-04-21T12:03:51.420Z,1.25
2023-04-21T12:06:34.024Z,1.55
2023-04-21T12:09:04.339Z,1.38
2023-04-21T12:11:32.038Z,1.40
2023-04-21T12:14:05.892Z,1.48
2023-04-21T12:16:33.079Z,1.30
2023-04-21T12:19:07.046Z,1.45
2023-04-21T12:21:34.323Z,1.58
2023-04-21T12:24:01.402Z,1.40
2023-04-21T12:26:34.876Z,1.42
2023-04-21T12:29:02.098Z,1.50
2023-04-21T12:31:35.959Z,1.70
2023-04-21T12:34:03.176Z,1.48
2023-04-21T12:36:31.056Z,1.33
2023-04-21T12:39:04.976Z,1.55
2023-04-21T12:41:32.157Z,1.35
2023-04-21T12:44:05.885Z,1.13
2023-04-21T12:46:45.831Z,1.55
2023-04-21T12:49:19.896Z,1.52
2023-04-21T12:51:53.848Z,1.80
2023-04-21T12:54:21.307Z,1.52
2023-04-21T12:59:21.829Z,1.80
2023-04-21T13:01:49.067Z,1.98
2023-04-21T13:04:23.162Z,1.95
2023-04-21T13:06:50.746Z,1.83
2023-04-21T13:09:18.078Z,1.58
2023-04-21T13:11:51.890Z,1.83
2023-04-21T13:14:19.747Z,1.50
2023-04-21T13:16:54.183Z,1.60
2023-04-21T13:19:21.348Z,1.60
2023-04-21T13:21:48.579Z,1.70
2023-04-21T13:24:21.897Z,1.80
2023-04-21T13:26:49.078Z,1.70
2023-04-21T13:29:24.065Z,1.42
2023-04-21T13:31:51.206Z,1.92
2023-04-21T13:34:18.422Z,2.10
2023-04-21T13:37:06.901Z,1.90
2023-04-21T13:39:41.005Z,1.55
2023-04-21T13:42:14.985Z,1.90
2023-04-21T13:44:48.902Z,1.50
2023-04-21T13:47:29.016Z,1.67
2023-04-21T13:50:02.851Z,1.67
2023-04-21T13:52:37.061Z,1.60
2023-04-21T13:55:05.367Z,2.00
2023-04-21T13:57:32.576Z,1.80
2023-04-21T14:00:06.065Z,1.52
2023-04-21T14:02:33.576Z,1.30
2023-04-21T14:05:08.278Z,1.30
2023-04-21T14:07:36.105Z,1.40
2023-04-21T14:10:04.449Z,1.20
2023-04-21T14:12:38.024Z,1.33
2023-04-21T14:15:08.889Z,1.33
2023-04-21T14:17:36.000Z,1.70
2023-04-21T14:20:10.949Z,1.23
2023-04-21T14:22:38.302Z,1.27
2023-04-21T14:25:12.093Z,1.25
2023-04-21T14:27:39.459Z,1.40
2023-04-21T14:30:06.946Z,1.17
2023-04-21T14:35:08.452Z,1.58
2023-04-21T14:37:42.012Z,1.17
2023-04-21T14:40:09.466Z,1.48
2023-04-21T14:45:09.960Z,1.25
2023-04-21T14:47:37.987Z,1.13
2023-04-21T14:50:13.069Z,1.60
2023-04-21T14:52:40.467Z,1.60
2023-04-21T14:55:07.849Z,1.30
2023-04-21T15:00:10.594Z,1.30
2023-04-21T15:02:39.547Z,1.30
2023-04-21T15:05:15.068Z,1.60
2023-04-21T15:07:42.961Z,1.08
2023-04-21T15:10:17.974Z,1.27
2023-04-21T15:12:45.572Z,1.35
2023-04-21T15:15:12.730Z,1.33
2023-04-21T15:17:46.087Z,1.48
2023-04-21T15:20:13.394Z,1.10
2023-04-21T15:22:48.036Z,1.33
2023-04-21T15:25:15.299Z,1.40
2023-04-21T15:27:42.410Z,1.20
2023-04-21T15:30:16.088Z,1.58
2023-04-21T15:32:43.336Z,1.10
2023-04-21T15:35:16.997Z,1.20
2023-04-21T15:37:44.190Z,1.10
2023-04-21T15:40:11.619Z,1.17
2023-04-21T15:42:45.113Z,1.00
2023-04-21T15:45:19.008Z,1.13
2023-04-21T15:47:53.120Z,1.52
2023-04-21T15:50:20.386Z,1.60
2023-04-21T15:52:47.744Z,1.05
2023-04-21T15:55:21.978Z,0.95
2023-04-21T15:57:49.204Z,0.98
2023-04-21T16:00:23.102Z,1.67
2023-04-21T16:02:50.891Z,0.90
2023-04-21T16:05:19.953Z,1.13
2023-04-21T16:07:54.018Z,0.85
2023-04-21T16:10:21.260Z,0.90
2023-04-21T16:12:57.108Z,1.20
2023-04-21T16:15:25.165Z,1.20
2023-04-21T16:17:52.886Z,1.00
2023-04-21T16:22:54.223Z,1.17
2023-04-21T16:25:28.129Z,1.15
2023-04-21T16:27:55.454Z,0.90
2023-04-21T16:30:22.681Z,1.10
2023-04-21T16:32:56.006Z,1.05
2023-04-21T16:35:23.294Z,1.25
2023-04-21T16:37:57.041Z,1.15
2023-04-21T16:40:25.119Z,0.90
2023-04-21T16:42:52.631Z,0.80
2023-04-21T16:45:27.171Z,0.98
2023-04-21T16:48:01.078Z,1.20
2023-04-21T16:50:35.066Z,0.95
2023-04-21T16:53:02.304Z,1.05
2023-04-21T16:55:42.212Z,0.80
2023-04-21T16:58:09.393Z,1.02
2023-04-21T17:00:50.151Z,1.42
2023-04-21T17:03:17.766Z,1.10
2023-04-21T17:05:45.091Z,1.75
2023-04-21T17:08:19.055Z,1.65
2023-04-21T17:10:46.348Z,1.92
2023-04-21T17:13:13.448Z,1.55
2023-04-21T17:15:47.195Z,1.75
2023-04-21T17:18:14.490Z,1.60
2023-04-21T17:20:47.981Z,1.40
2023-04-21T17:23:15.281Z,1.38
2023-04-21T17:25:42.612Z,1.85
2023-04-21T17:28:16.009Z,1.75
2023-04-21T17:30:43.286Z,1.40
2023-04-21T17:33:17.654Z,1.50
2023-04-21T17:35:59.845Z,1.75
2023-04-21T17:38:35.984Z,1.70
2023-04-21T17:41:04.678Z,1.60
2023-04-21T17:43:31.799Z,1.52
2023-04-21T17:46:05.168Z,1.50
2023-04-21T17:48:32.520Z,1.85
2023-04-21T17:51:06.084Z,1.70
2023-04-21T17:53:33.670Z,1.45
2023-04-21T17:58:35.035Z,1.80
2023-04-21T18:01:02.557Z,1.50
2023-04-21T18:06:04.819Z,1.85
2023-04-21T18:08:31.970Z,1.85
2023-04-21T18:11:06.050Z,1.70
2023-04-21T18:13:33.274Z,1.52
2023-04-21T18:16:07.045Z,1.55
2023-04-21T18:18:40.951Z,1.23
2023-04-21T18:21:08.314Z,1.67
2023-04-21T18:23:42.118Z,1.50
2023-04-21T18:26:09.359Z,1.10
2023-04-21T18:28:36.729Z,1.90
2023-04-21T18:31:12.046Z,1.55
2023-04-21T18:33:39.307Z,1.50
2023-04-21T18:36:13.190Z,1.55
2023-04-21T18:38:40.435Z,1.40
2023-04-21T18:41:07.570Z,1.40
2023-04-21T18:43:42.257Z,1.75
2023-04-21T18:46:29.086Z,1.60
2023-04-21T18:49:03.391Z,1.52
2023-04-21T18:51:31.638Z,1.65
2023-04-21T18:53:58.835Z,1.67
2023-04-21T18:56:33.037Z,1.40
2023-04-21T18:59:00.766Z,1.35
2023-04-21T19:01:35.281Z,1.70
2023-04-21T19:04:02.835Z,1.52
2023-04-21T19:09:04.345Z,1.40
2023-04-21T19:11:33.390Z,1.90
2023-04-21T19:14:07.289Z,1.77
2023-04-21T19:16:34.672Z,1.85
2023-04-21T19:19:02.252Z,1.20
2023-04-21T19:21:37.124Z,1.85
2023-04-21T19:24:04.546Z,1.98
2023-04-21T19:26:31.675Z,1.40
2023-04-21T19:29:05.326Z,1.73
2023-04-21T19:31:32.571Z,1.50
2023-04-21T19:34:06.348Z,1.58
2023-04-21T19:36:33.749Z,1.60
2023-04-21T19:39:00.928Z,1.63
2023-04-21T19:41:35.092Z,1.88
2023-04-21T19:44:02.452Z,1.60
2023-04-21T19:46:42.383Z,1.98
2023-04-21T19:49:12.885Z,1.58
2023-04-21T19:51:41.145Z,1.77
2023-04-21T19:54:15.156Z,1.90
2023-04-21T19:56:42.400Z,1.60
2023-04-21T19:59:16.206Z,2.08
2023-04-21T20:01:43.714Z,1.75
2023-04-21T20:04:12.018Z,1.73
2023-04-21T20:06:47.185Z,1.90
2023-04-21T20:09:14.354Z,1.58
2023-04-21T20:11:48.317Z,1.77
2023-04-21T20:14:16.815Z,1.65
2023-04-21T20:16:46.221Z,1.88
2023-04-21T20:19:22.202Z,1.80
2023-04-21T20:21:50.178Z,1.85
2023-04-21T20:24:17.293Z,1.90
2023-04-21T20:26:51.090Z,2.00
2023-04-21T20:29:18.283Z,1.80
2023-04-21T20:31:53.135Z,2.03
2023-04-21T20:34:20.489Z,1.98
2023-04-21T20:36:47.643Z,1.88
2023-04-21T20:39:21.199Z,2.05
2023-04-21T20:41:55.437Z,2.00
2023-04-21T20:44:38.092Z,1.60
2023-04-21T20:47:12.190Z,1.88
2023-04-21T20:49:46.171Z,2.13
2023-04-21T20:52:13.423Z,2.20
2023-04-21T20:54:40.725Z,1.60
2023-04-21T20:57:15.113Z,1.58
2023-04-21T20:59:42.442Z,2.25
2023-04-21T21:02:16.501Z,1.90
2023-04-21T21:04:43.814Z,1.63
2023-04-21T21:07:11.146Z,1.88
2023-04-21T21:09:45.127Z,2.00
2023-04-21T21:12:12.349Z,1.98
2023-04-21T21:14:46.053Z,2.20
2023-04-21T21:17:16.252Z,1.88
2023-04-21T21:19:43.684Z,1.88
2023-04-21T21:22:17.048Z,2.10
2023-04-21T21:24:44.634Z,1.88
2023-04-21T21:29:45.656Z,2.08
2023-04-21T21:32:12.852Z,1.95
2023-04-21T21:34:47.115Z,2.08
2023-04-21T21:37:14.289Z,1.70
2023-04-21T21:39:48.238Z,1.92
2023-04-21T21:42:15.614Z,1.70
2023-04-21T21:45:02.179Z,2.05
2023-04-21T21:47:29.472Z,2.70
2023-04-21T21:49:58.801Z,2.05
2023-04-21T21:52:33.192Z,1.90
2023-04-21T21:55:00.655Z,2.22
2023-04-21T21:57:34.077Z,2.30
2023-04-21T22:00:02.165Z,1.83
2023-04-21T22:02:29.497Z,2.40
2023-04-21T22:05:05.210Z,2.03
2023-04-21T22:07:32.523Z,2.00
2023-04-21T22:10:06.201Z,1.92
2023-04-21T22:12:33.510Z,2.08
2023-04-21T22:15:00.725Z,2.22
2023-04-21T22:17:36.273Z,2.03
2023-04-21T22:20:11.039Z,2.13
2023-04-21T22:22:38.429Z,2.00
2023-04-21T22:25:12.168Z,2.40
2023-04-21T22:27:40.193Z,2.13
2023-04-21T22:30:08.062Z,2.92
2023-04-21T22:32:42.185Z,2.35
2023-04-21T22:35:09.466Z,2.63
2023-04-21T22:37:43.218Z,2.42
2023-04-21T22:40:10.912Z,2.17
2023-04-21T22:42:38.134Z,1.95
2023-04-21T22:45:12.203Z,2.00
2023-04-21T22:47:46.094Z,2.15
2023-04-21T22:50:21.323Z,1.92
2023-04-21T22:52:48.453Z,2.25
2023-04-21T22:55:15.649Z,2.28
2023-04-21T22:57:50.183Z,3.08
2023-04-21T23:00:17.481Z,2.40
2023-04-21T23:02:51.202Z,2.28
2023-04-21T23:05:19.240Z,2.25
2023-04-21T23:07:47.174Z,2.08
2023-04-21T23:10:21.141Z,2.40
2023-04-21T23:12:48.431Z,2.28
2023-04-21T23:15:22.126Z,2.25
2023-04-21T23:17:49.578Z,2.42
2023-04-21T23:20:16.820Z,2.30
2023-04-21T23:22:51.132Z,2.40
2023-04-21T23:25:18.456Z,2.50
2023-04-21T23:27:52.172Z,2.30
2023-04-21T23:30:19.644Z,2.40
2023-04-21T23:32:46.804Z,2.40
2023-04-21T23:35:20.153Z,2.75
2023-04-21T23:37:47.298Z,2.50
2023-04-21T23:40:21.399Z,2.47
2023-04-21T23:42:48.807Z,2.28
2023-04-21T23:45:29.236Z,2.33
2023-04-21T23:48:09.239Z,2.47
2023-04-21T23:50:36.924Z,2.60
2023-04-21T23:55:38.150Z,2.55
2023-04-21T23:58:12.098Z,2.53
